createdAt,value
2018-06-27T00:01:09.055Z,21.43
2018-06-27T00:03:37.195Z,21.61
2018-06-27T00:06:05.529Z,21.32
2018-06-27T00:08:33.708Z,21.00
2018-06-27T00:11:01.855Z,20.89
2018-06-27T00:13:29.989Z,19.85
2018-06-27T00:15:58.165Z,19.69
2018-06-27T00:18:26.395Z,19.64
2018-06-27T00:20:54.496Z,19.60
2018-06-27T00:23:22.615Z,19.81
2018-06-27T00:25:50.879Z,19.72
2018-06-27T00:28:18.997Z,19.63
2018-06-27T00:30:47.773Z,19.48
2018-06-27T00:33:15.872Z,19.43
2018-06-27T00:35:44.488Z,19.65
2018-06-27T00:38:14.859Z,19.54
2018-06-27T00:40:43.306Z,19.43
2018-06-27T00:43:11.525Z,19.26
2018-06-27T00:45:39.670Z,19.40
2018-06-27T00:48:08.806Z,19.33
2018-06-27T00:50:37.118Z,19.31
2018-06-27T00:53:05.419Z,19.17
2018-06-27T00:55:33.530Z,19.06
2018-06-27T00:58:01.681Z,19.22
2018-06-27T01:00:29.806Z,19.09
2018-06-27T01:02:58.202Z,18.95
2018-06-27T01:05:26.864Z,18.98
2018-06-27T01:07:55.503Z,19.02
2018-06-27T01:10:23.778Z,18.82
2018-06-27T01:12:51.905Z,18.97
2018-06-27T01:15:19.999Z,18.92
2018-06-27T01:17:55.568Z,18.88
2018-06-27T01:20:23.751Z,18.75
2018-06-27T01:22:52.126Z,19.05
2018-06-27T01:25:20.774Z,18.92
2018-06-27T01:27:49.388Z,18.59
2018-06-27T01:30:17.634Z,18.90
2018-06-27T01:32:45.862Z,19.03
2018-06-27T01:35:14.429Z,19.15
2018-06-27T01:37:43.351Z,18.88
2018-06-27T01:40:11.510Z,18.73
2018-06-27T01:42:39.807Z,18.70
2018-06-27T01:45:08.002Z,18.62
2018-06-27T01:47:36.263Z,18.62
2018-06-27T01:50:04.473Z,18.67
2018-06-27T01:52:33.630Z,18.44
2018-06-27T01:55:01.751Z,18.56
2018-06-27T01:57:29.870Z,18.56
2018-06-27T01:59:58.100Z,18.46
2018-06-27T02:02:26.498Z,18.45
2018-06-27T02:04:54.625Z,18.65
2018-06-27T02:07:22.745Z,18.59
2018-06-27T02:09:50.872Z,18.48
2018-06-27T02:12:19.155Z,18.49
2018-06-27T02:14:47.283Z,18.31
2018-06-27T02:17:15.382Z,18.54
2018-06-27T02:19:43.484Z,18.75
2018-06-27T02:22:11.600Z,18.44
2018-06-27T02:24:39.699Z,18.40
2018-06-27T02:27:07.814Z,18.41
2018-06-27T02:29:35.871Z,18.48
2018-06-27T02:32:04.160Z,18.14
2018-06-27T02:34:32.223Z,18.29
2018-06-27T02:37:00.287Z,18.24
2018-06-27T02:39:28.502Z,18.06
2018-06-27T02:41:56.534Z,18.20
2018-06-27T02:44:24.601Z,18.09
2018-06-27T02:46:52.669Z,18.23
2018-06-27T02:49:20.856Z,18.13
2018-06-27T02:51:48.987Z,18.08
2018-06-27T02:54:17.098Z,18.20
2018-06-27T02:56:45.209Z,18.06
2018-06-27T02:59:14.043Z,17.69
2018-06-27T03:01:42.295Z,17.78
2018-06-27T03:04:10.370Z,18.14
2018-06-27T03:06:38.505Z,18.00
2018-06-27T03:09:08.375Z,17.70
2018-06-27T03:11:36.500Z,17.87
2018-06-27T03:14:04.567Z,17.79
2018-06-27T03:16:32.679Z,17.67
2018-06-27T03:19:00.715Z,17.85
2018-06-27T03:21:28.847Z,17.70
2018-06-27T03:23:57.107Z,17.82
2018-06-27T03:26:25.375Z,17.60
2018-06-27T03:28:53.616Z,17.70
2018-06-27T03:31:21.723Z,17.66
2018-06-27T03:33:49.886Z,17.59
2018-06-27T03:36:18.099Z,17.68
2018-06-27T03:38:46.172Z,17.74
2018-06-27T03:41:14.308Z,17.79
2018-06-27T03:43:42.342Z,17.87
2018-06-27T03:46:10.470Z,17.98
2018-06-27T03:48:38.550Z,18.11
2018-06-27T03:51:06.664Z,17.83
2018-06-27T03:53:40.894Z,17.63
2018-06-27T03:56:09.987Z,17.81
2018-06-27T03:58:38.791Z,17.66
2018-06-27T04:01:08.588Z,17.70
2018-06-27T04:03:36.890Z,17.50
2018-06-27T04:06:05.155Z,17.71
2018-06-27T04:08:33.327Z,17.71
2018-06-27T04:11:01.407Z,17.72
2018-06-27T04:13:29.639Z,17.44
2018-06-27T04:15:57.662Z,17.63
2018-06-27T04:18:25.736Z,17.70
2018-06-27T04:20:53.872Z,17.59
2018-06-27T04:23:22.083Z,17.75
2018-06-27T04:25:50.197Z,17.49
2018-06-27T04:28:18.308Z,17.68
2018-06-27T04:30:46.401Z,17.74
2018-06-27T04:33:14.542Z,17.72
2018-06-27T04:35:42.847Z,17.96
2018-06-27T04:38:11.311Z,17.74
2018-06-27T04:40:39.572Z,18.18
2018-06-27T04:43:07.831Z,17.90
2018-06-27T04:45:36.277Z,17.85
2018-06-27T04:48:04.517Z,17.87
2018-06-27T04:50:33.068Z,17.96
2018-06-27T04:53:01.169Z,18.01
2018-06-27T04:55:29.302Z,18.01
2018-06-27T04:57:57.588Z,18.11
2018-06-27T05:00:25.698Z,18.01
2018-06-27T05:02:53.802Z,18.05
2018-06-27T05:05:21.910Z,18.29
2018-06-27T05:07:50.022Z,18.16
2018-06-27T05:10:18.524Z,18.20
2018-06-27T05:12:46.595Z,18.25
2018-06-27T05:15:14.858Z,18.44
2018-06-27T05:17:44.138Z,18.15
2018-06-27T05:20:12.239Z,18.40
2018-06-27T05:22:40.635Z,18.80
2018-06-27T05:25:09.763Z,18.65
2018-06-27T05:27:37.967Z,18.81
2018-06-27T05:30:05.982Z,18.69
2018-06-27T05:32:34.141Z,18.69
2018-06-27T05:35:02.214Z,18.77
2018-06-27T05:37:30.351Z,18.73
2018-06-27T05:39:58.535Z,19.03
2018-06-27T05:42:26.696Z,18.91
2018-06-27T05:44:55.547Z,18.73
2018-06-27T05:47:23.798Z,18.92
2018-06-27T05:49:52.014Z,19.02
2018-06-27T05:52:20.131Z,19.27
2018-06-27T05:54:52.415Z,19.18
2018-06-27T05:57:20.610Z,19.06
2018-06-27T05:59:48.858Z,19.25
2018-06-27T06:02:17.046Z,19.38
2018-06-27T06:04:45.154Z,19.17
2018-06-27T06:15:51.827Z,19.20
2018-06-27T06:18:20.037Z,19.84
2018-06-27T06:20:48.215Z,19.89
2018-06-27T06:23:16.350Z,19.81
2018-06-27T06:25:44.519Z,19.71
2018-06-27T06:28:12.618Z,20.02
2018-06-27T06:30:40.759Z,20.06
2018-06-27T06:33:08.894Z,20.29
2018-06-27T06:35:36.961Z,20.28
2018-06-27T06:38:05.370Z,20.36
2018-06-27T06:40:34.809Z,20.31
2018-06-27T06:43:02.944Z,20.32
2018-06-27T06:45:31.069Z,20.28
2018-06-27T06:47:59.151Z,20.59
2018-06-27T06:50:28.311Z,20.30
2018-06-27T06:52:57.135Z,20.52
2018-06-27T06:55:25.322Z,20.69
2018-06-27T06:57:53.390Z,20.65
2018-06-27T07:00:21.662Z,20.61
2018-06-27T07:02:49.865Z,20.72
2018-06-27T07:05:17.992Z,20.77
2018-06-27T07:07:46.082Z,20.76
2018-06-27T07:10:14.614Z,20.91
2018-06-27T07:12:42.897Z,20.97
2018-06-27T07:15:11.431Z,20.96
2018-06-27T07:17:39.715Z,20.97
2018-06-27T07:20:07.803Z,21.15
2018-06-27T07:22:35.900Z,21.14
2018-06-27T07:25:04.175Z,21.19
2018-06-27T07:27:32.258Z,21.29
2018-06-27T07:30:00.343Z,21.19
2018-06-27T07:32:28.647Z,21.12
2018-06-27T07:34:56.731Z,21.22
2018-06-27T07:37:25.254Z,21.38
2018-06-27T07:39:53.573Z,21.21
2018-06-27T07:42:21.930Z,21.32
2018-06-27T07:44:50.157Z,21.47
2018-06-27T07:47:18.244Z,21.29
2018-06-27T07:49:46.438Z,21.57
2018-06-27T07:52:14.912Z,21.68
2018-06-27T07:54:43.227Z,21.81
2018-06-27T07:57:14.354Z,21.76
2018-06-27T07:59:42.438Z,21.92
2018-06-27T08:02:10.689Z,21.83
2018-06-27T08:04:38.811Z,21.87
2018-06-27T08:07:06.979Z,21.85
2018-06-27T08:09:35.171Z,22.02
2018-06-27T08:12:03.460Z,21.95
2018-06-27T08:14:32.219Z,22.04
2018-06-27T08:17:00.379Z,22.25
2018-06-27T08:19:28.503Z,22.22
2018-06-27T08:21:56.703Z,22.25
2018-06-27T08:24:25.022Z,22.38
2018-06-27T08:26:53.200Z,22.40
2018-06-27T08:29:21.452Z,22.39
2018-06-27T08:31:49.560Z,22.48
2018-06-27T08:34:17.604Z,22.51
2018-06-27T08:36:45.875Z,22.60
2018-06-27T08:39:14.919Z,22.64
2018-06-27T08:41:43.525Z,22.64
2018-06-27T08:44:11.603Z,22.72
2018-06-27T08:46:39.867Z,22.80
2018-06-27T08:49:08.001Z,22.92
2018-06-27T08:51:36.129Z,22.88
2018-06-27T08:54:04.277Z,22.96
2018-06-27T08:56:32.425Z,22.98
2018-06-27T08:59:00.495Z,23.09
2018-06-27T09:01:28.783Z,23.23
2018-06-27T09:03:56.914Z,23.21
2018-06-27T09:06:25.046Z,23.28
2018-06-27T09:08:53.122Z,23.33
2018-06-27T09:11:21.231Z,23.39
2018-06-27T09:13:49.490Z,23.42
2018-06-27T09:16:17.568Z,23.47
2018-06-27T09:18:45.636Z,23.45
2018-06-27T09:21:13.751Z,23.27
2018-06-27T09:23:43.027Z,23.40
2018-06-27T09:26:11.150Z,23.57
2018-06-27T09:28:39.267Z,23.62
2018-06-27T09:31:07.510Z,23.81
2018-06-27T09:33:35.619Z,23.82
2018-06-27T09:36:03.707Z,23.69
2018-06-27T09:38:31.838Z,23.87
2018-06-27T09:40:59.956Z,24.08
2018-06-27T09:43:30.319Z,24.12
2018-06-27T09:45:58.401Z,24.25
2018-06-27T09:48:28.038Z,24.43
2018-06-27T09:50:56.190Z,24.38
2018-06-27T09:53:24.435Z,24.30
2018-06-27T09:55:53.459Z,24.58
2018-06-27T09:58:21.680Z,24.72
2018-06-27T10:00:49.886Z,24.64
2018-06-27T10:03:18.006Z,24.77
2018-06-27T10:05:47.035Z,24.95
2018-06-27T10:08:16.156Z,25.11
2018-06-27T10:10:44.977Z,25.19
2018-06-27T10:13:13.478Z,25.25
2018-06-27T10:15:42.652Z,25.21
2018-06-27T10:18:11.048Z,25.21
2018-06-27T10:20:39.297Z,25.18
2018-06-27T10:23:07.560Z,25.06
2018-06-27T10:25:35.751Z,24.87
2018-06-27T10:28:03.879Z,25.03
2018-06-27T10:30:32.173Z,25.21
2018-06-27T10:33:00.309Z,25.29
2018-06-27T10:35:28.727Z,25.34
2018-06-27T10:37:56.807Z,25.23
2018-06-27T10:40:24.886Z,25.34
2018-06-27T10:42:53.102Z,25.62
2018-06-27T10:45:21.226Z,25.49
2018-06-27T10:47:49.489Z,25.56
2018-06-27T10:50:17.632Z,25.41
2018-06-27T10:52:45.857Z,25.48
2018-06-27T10:55:18.856Z,25.36
2018-06-27T10:57:47.437Z,25.73
2018-06-27T11:00:15.846Z,25.74
2018-06-27T11:02:43.972Z,25.81
2018-06-27T11:05:12.111Z,25.65
2018-06-27T11:07:40.164Z,26.46
2018-06-27T11:10:08.270Z,26.02
2018-06-27T11:12:37.447Z,25.76
2018-06-27T11:15:06.110Z,26.52
2018-06-27T11:17:34.469Z,27.12
2018-06-27T11:20:02.629Z,27.09
2018-06-27T11:22:30.722Z,27.22
2018-06-27T11:24:58.921Z,27.09
2018-06-27T11:27:27.740Z,27.61
2018-06-27T11:29:56.507Z,27.80
2018-06-27T11:32:25.323Z,28.03
2018-06-27T11:34:53.662Z,28.46
2018-06-27T11:37:21.772Z,28.18
2018-06-27T11:39:49.947Z,27.89
2018-06-27T11:42:18.044Z,29.43
2018-06-27T11:44:46.155Z,30.16
2018-06-27T11:47:14.300Z,30.44
2018-06-27T11:49:42.408Z,30.93
2018-06-27T11:52:10.512Z,29.09
2018-06-27T11:54:40.816Z,30.40
2018-06-27T11:57:08.926Z,31.82
2018-06-27T11:59:37.120Z,31.87
2018-06-27T12:02:06.291Z,30.82
2018-06-27T12:04:34.541Z,33.10
2018-06-27T12:07:02.663Z,34.07
2018-06-27T12:09:30.777Z,35.20
2018-06-27T12:11:59.114Z,33.86
2018-06-27T12:14:27.271Z,32.54
2018-06-27T12:16:55.482Z,31.08
2018-06-27T12:19:23.642Z,33.29
2018-06-27T12:21:51.804Z,35.75
2018-06-27T12:24:19.923Z,36.28
2018-06-27T12:26:48.072Z,36.32
2018-06-27T12:29:16.340Z,35.96
2018-06-27T12:31:44.590Z,37.42
2018-06-27T12:34:12.712Z,34.40
2018-06-27T12:36:40.998Z,33.36
2018-06-27T12:39:09.769Z,34.33
2018-06-27T12:41:39.639Z,35.57
2018-06-27T12:44:07.788Z,37.59
2018-06-27T12:46:36.564Z,36.98
2018-06-27T12:49:05.124Z,37.69
2018-06-27T12:51:33.396Z,38.29
2018-06-27T12:54:01.851Z,38.43
2018-06-27T12:56:30.233Z,38.25
2018-06-27T12:58:58.446Z,39.59
2018-06-27T13:01:26.597Z,38.05
2018-06-27T13:03:54.795Z,37.77
2018-06-27T13:06:23.114Z,37.38
2018-06-27T13:08:51.297Z,39.45
2018-06-27T13:11:19.597Z,39.88
2018-06-27T13:13:48.151Z,39.04
2018-06-27T13:16:16.385Z,39.40
2018-06-27T13:18:44.509Z,39.02
2018-06-27T13:21:12.605Z,40.07
2018-06-27T13:23:40.727Z,41.73
2018-06-27T13:26:08.901Z,42.73
2018-06-27T13:28:37.219Z,40.73
2018-06-27T13:31:05.443Z,37.56
2018-06-27T13:33:34.558Z,40.16
2018-06-27T13:36:02.659Z,41.70
2018-06-27T13:38:30.838Z,41.16
2018-06-27T13:40:58.995Z,42.22
2018-06-27T13:43:27.253Z,42.30
2018-06-27T13:45:55.427Z,41.40
2018-06-27T13:48:23.650Z,40.43
2018-06-27T13:50:51.782Z,37.85
2018-06-27T13:53:19.990Z,35.87
2018-06-27T13:55:48.176Z,40.04
2018-06-27T13:58:22.548Z,40.66
2018-06-27T14:00:51.056Z,42.52
2018-06-27T14:03:19.301Z,39.47
2018-06-27T14:05:47.400Z,40.94
2018-06-27T14:15:50.604Z,40.04
2018-06-27T14:18:18.728Z,40.58
2018-06-27T14:20:46.967Z,40.80
2018-06-27T14:23:15.129Z,41.91
2018-06-27T14:25:43.294Z,42.32
2018-06-27T14:28:11.395Z,39.55
2018-06-27T14:30:39.497Z,37.96
2018-06-27T14:33:07.620Z,41.14
2018-06-27T14:35:35.724Z,42.25
2018-06-27T14:38:03.947Z,42.12
2018-06-27T14:40:32.054Z,42.82
2018-06-27T14:43:00.729Z,41.21
2018-06-27T14:45:28.884Z,38.90
2018-06-27T14:47:57.343Z,40.63
2018-06-27T14:50:25.463Z,41.94
2018-06-27T14:52:53.732Z,41.39
2018-06-27T14:55:21.836Z,40.33
2018-06-27T14:57:50.055Z,40.93
2018-06-27T15:00:18.216Z,38.84
2018-06-27T15:02:46.759Z,40.48
2018-06-27T15:05:14.914Z,39.77
2018-06-27T15:07:43.194Z,39.87
2018-06-27T15:10:11.348Z,40.70
2018-06-27T15:12:39.501Z,41.38
2018-06-27T15:15:07.691Z,41.96
2018-06-27T15:17:35.892Z,42.21
2018-06-27T15:20:04.162Z,40.78
2018-06-27T15:22:32.331Z,41.72
2018-06-27T15:25:00.426Z,39.75
2018-06-27T15:27:28.818Z,40.92
2018-06-27T15:29:57.783Z,40.24
2018-06-27T15:32:25.919Z,41.48
2018-06-27T15:34:54.101Z,41.36
2018-06-27T15:37:22.456Z,37.73
2018-06-27T15:39:50.695Z,36.37
2018-06-27T15:42:19.189Z,39.84
2018-06-27T15:44:47.364Z,40.90
2018-06-27T15:47:15.568Z,40.04
2018-06-27T15:49:43.803Z,39.81
2018-06-27T15:52:11.941Z,38.73
2018-06-27T15:54:40.332Z,37.28
2018-06-27T15:57:08.508Z,35.74
2018-06-27T15:59:36.970Z,35.78
2018-06-27T16:02:08.387Z,37.74
2018-06-27T16:04:36.707Z,36.92
2018-06-27T16:07:04.865Z,36.10
2018-06-27T16:09:33.033Z,34.76
2018-06-27T16:12:01.280Z,34.95
2018-06-27T16:14:29.998Z,34.60
2018-06-27T16:16:58.289Z,33.87
2018-06-27T16:19:26.406Z,33.64
2018-06-27T16:21:54.686Z,33.38
2018-06-27T16:24:22.839Z,33.00
2018-06-27T16:26:51.096Z,32.90
2018-06-27T16:29:20.438Z,32.71
2018-06-27T16:31:48.594Z,32.65
2018-06-27T16:34:17.282Z,32.54
2018-06-27T16:36:46.347Z,32.23
2018-06-27T16:39:15.132Z,31.91
2018-06-27T16:41:43.231Z,31.95
2018-06-27T16:44:13.141Z,32.02
2018-06-27T16:46:41.553Z,32.04
2018-06-27T16:49:10.285Z,31.79
2018-06-27T16:51:38.517Z,31.64
2018-06-27T16:54:06.686Z,31.64
2018-06-27T16:56:34.890Z,31.04
2018-06-27T16:59:03.267Z,31.12
2018-06-27T17:01:31.583Z,31.30
2018-06-27T17:03:59.615Z,31.33
2018-06-27T17:06:27.991Z,31.57
2018-06-27T17:08:56.385Z,31.38
2018-06-27T17:11:24.534Z,31.15
2018-06-27T17:13:52.642Z,30.55
2018-06-27T17:16:20.870Z,30.26
2018-06-27T17:18:49.152Z,29.65
2018-06-27T17:21:17.459Z,29.82
2018-06-27T17:23:45.562Z,30.05
2018-06-27T17:26:13.700Z,29.81
2018-06-27T17:28:43.831Z,30.22
2018-06-27T17:31:11.951Z,30.33
2018-06-27T17:33:40.299Z,29.88
2018-06-27T17:36:08.395Z,29.65
2018-06-27T17:38:36.546Z,29.68
2018-06-27T17:41:04.632Z,29.38
2018-06-27T17:43:32.745Z,29.32
2018-06-27T17:46:00.836Z,29.65
2018-06-27T17:48:28.915Z,29.47
2018-06-27T17:50:59.196Z,29.35
2018-06-27T17:53:27.338Z,29.43
2018-06-27T17:55:55.613Z,29.16
2018-06-27T17:58:23.798Z,29.04
2018-06-27T18:00:51.921Z,29.17
2018-06-27T18:03:20.275Z,29.24
2018-06-27T18:05:48.343Z,28.98
2018-06-27T18:08:16.535Z,29.13
2018-06-27T18:10:45.230Z,29.13
2018-06-27T18:13:13.406Z,28.81
2018-06-27T18:15:41.716Z,28.57
2018-06-27T18:18:11.162Z,28.42
2018-06-27T18:20:39.494Z,28.30
2018-06-27T18:23:07.614Z,28.14
2018-06-27T18:25:35.844Z,28.34
2018-06-27T18:28:03.990Z,28.56
2018-06-27T18:30:32.391Z,28.32
2018-06-27T18:33:00.531Z,28.09
2018-06-27T18:35:28.638Z,28.33
2018-06-27T18:37:56.834Z,28.28
2018-06-27T18:40:25.160Z,28.08
2018-06-27T18:42:53.349Z,28.20
2018-06-27T18:45:21.651Z,28.23
2018-06-27T18:47:49.847Z,27.90
2018-06-27T18:50:17.995Z,27.46
2018-06-27T18:52:46.443Z,27.50
2018-06-27T18:55:14.660Z,27.40
2018-06-27T18:57:42.926Z,27.37
2018-06-27T19:00:11.319Z,27.50
2018-06-27T19:02:39.669Z,27.12
2018-06-27T19:05:07.808Z,27.48
2018-06-27T19:07:36.027Z,27.34
2018-06-27T19:10:04.201Z,27.20
2018-06-27T19:12:32.356Z,27.48
2018-06-27T19:15:00.606Z,27.25
2018-06-27T19:17:28.798Z,27.00
2018-06-27T19:19:56.911Z,27.13
2018-06-27T19:22:25.066Z,26.88
2018-06-27T19:24:53.111Z,26.90
2018-06-27T19:27:21.518Z,26.84
2018-06-27T19:29:49.689Z,26.91
2018-06-27T19:32:18.170Z,26.89
2018-06-27T19:34:46.512Z,26.89
2018-06-27T19:37:14.590Z,26.76
2018-06-27T19:39:42.699Z,26.35
2018-06-27T19:42:11.033Z,26.36
2018-06-27T19:44:39.100Z,26.02
2018-06-27T19:47:07.303Z,26.16
2018-06-27T19:49:35.423Z,26.26
2018-06-27T19:52:03.534Z,25.78
2018-06-27T19:54:31.737Z,25.71
2018-06-27T19:57:00.020Z,25.94
2018-06-27T19:59:28.499Z,25.91
2018-06-27T20:01:56.719Z,25.91
2018-06-27T20:04:24.953Z,25.85
2018-06-27T20:06:54.055Z,25.97
2018-06-27T20:09:22.087Z,25.62
2018-06-27T20:11:50.542Z,25.75
2018-06-27T20:14:18.754Z,25.84
2018-06-27T20:16:46.879Z,25.64
2018-06-27T20:19:15.132Z,25.77
2018-06-27T20:21:43.295Z,25.26
2018-06-27T20:24:11.503Z,25.53
2018-06-27T20:26:39.686Z,25.65
2018-06-27T20:29:08.460Z,25.48
2018-06-27T20:31:36.825Z,25.55
2018-06-27T20:34:05.011Z,25.59
2018-06-27T20:36:33.242Z,25.58
2018-06-27T20:39:01.400Z,25.29
2018-06-27T20:41:29.549Z,25.31
2018-06-27T20:43:58.767Z,25.18
2018-06-27T20:46:26.887Z,25.20
2018-06-27T20:48:55.151Z,25.38
2018-06-27T20:51:23.260Z,25.13
2018-06-27T20:53:52.011Z,25.39
2018-06-27T20:56:20.335Z,25.20
2018-06-27T20:58:48.422Z,25.33
2018-06-27T21:01:17.780Z,25.26
2018-06-27T21:03:45.934Z,25.02
2018-06-27T21:06:14.068Z,25.16
2018-06-27T21:08:42.183Z,25.09
2018-06-27T21:11:10.464Z,24.70
2018-06-27T21:13:38.715Z,24.83
2018-06-27T21:16:06.831Z,24.79
2018-06-27T21:18:35.545Z,24.98
2018-06-27T21:21:03.839Z,24.97
2018-06-27T21:23:31.997Z,24.86
2018-06-27T21:26:00.159Z,24.68
2018-06-27T21:28:28.787Z,24.96
2018-06-27T21:30:57.159Z,24.79
2018-06-27T21:33:25.397Z,24.58
2018-06-27T21:35:54.214Z,24.61
2018-06-27T21:38:22.981Z,24.49
2018-06-27T21:40:51.251Z,24.43
2018-06-27T21:43:20.711Z,24.23
2018-06-27T21:45:49.045Z,24.00
2018-06-27T21:48:17.723Z,23.80
2018-06-27T21:50:47.174Z,24.00
2018-06-27T21:53:15.322Z,23.81
2018-06-27T21:55:43.466Z,23.91
2018-06-27T21:58:11.600Z,23.62
2018-06-27T22:00:39.712Z,24.12
2018-06-27T22:03:08.036Z,23.91
2018-06-27T22:05:36.399Z,23.89
2018-06-27T22:08:04.578Z,23.71
2018-06-27T22:10:32.700Z,23.74
2018-06-27T22:13:01.363Z,23.66
2018-06-27T22:15:29.457Z,23.68
2018-06-27T22:17:57.647Z,23.28
2018-06-27T22:20:25.838Z,23.29
2018-06-27T22:22:55.115Z,23.18
2018-06-27T22:25:23.251Z,23.32
2018-06-27T22:27:52.425Z,23.46
2018-06-27T22:30:20.617Z,23.22
2018-06-27T22:32:49.157Z,23.29
2018-06-27T22:35:19.594Z,23.22
2018-06-27T22:37:47.851Z,23.08
2018-06-27T22:40:15.968Z,23.22
2018-06-27T22:42:44.058Z,23.32
2018-06-27T22:45:13.277Z,23.25
2018-06-27T22:47:42.403Z,23.30
2018-06-27T22:50:11.103Z,23.14
2018-06-27T22:52:40.091Z,22.76
2018-06-27T22:55:08.837Z,23.08
2018-06-27T22:57:37.362Z,23.02
2018-06-27T23:00:06.074Z,23.00
2018-06-27T23:02:34.701Z,23.18
2018-06-27T23:05:03.493Z,23.15
2018-06-27T23:07:31.592Z,23.11
2018-06-27T23:10:00.451Z,23.14
2018-06-27T23:12:29.317Z,22.88
2018-06-27T23:14:57.998Z,22.83
2018-06-27T23:17:26.131Z,22.91
2018-06-27T23:19:54.247Z,22.90
2018-06-27T23:22:34.088Z,22.82
2018-06-27T23:25:02.285Z,22.80
2018-06-27T23:27:30.848Z,22.55
2018-06-27T23:29:59.237Z,22.73
2018-06-27T23:32:27.332Z,22.91
2018-06-27T23:34:55.649Z,22.73
2018-06-27T23:37:24.143Z,22.65
2018-06-27T23:39:52.233Z,22.74
2018-06-27T23:42:20.344Z,22.74
2018-06-27T23:44:49.309Z,22.71
2018-06-27T23:47:17.410Z,22.62
2018-06-27T23:49:46.212Z,22.72
2018-06-27T23:52:14.289Z,22.48
2018-06-27T23:54:42.421Z,22.41
2018-06-27T23:57:10.580Z,22.41
2018-06-27T23:59:38.696Z,22.34
